createdAt,value
2019-04-06T00:00:16.746Z,16.13
2019-04-06T00:02:46.863Z,16.00
2019-04-06T00:05:16.834Z,15.83
2019-04-06T00:07:46.777Z,16.30
2019-04-06T00:10:16.887Z,17.03
2019-04-06T00:12:46.834Z,16.30
2019-04-06T00:15:16.798Z,15.60
2019-04-06T00:17:46.741Z,16.30
2019-04-06T00:20:16.709Z,15.70
2019-04-06T00:22:46.722Z,15.93
2019-04-06T00:25:16.689Z,15.60
2019-04-06T00:27:46.642Z,15.23
2019-04-06T00:30:17.829Z,15.47
2019-04-06T00:33:01.448Z,15.07
2019-04-06T00:35:31.452Z,16.00
2019-04-06T00:38:01.373Z,16.27
2019-04-06T00:40:31.338Z,17.47
2019-04-06T00:43:01.281Z,16.27
2019-04-06T00:45:31.247Z,16.53
2019-04-06T00:48:01.194Z,15.97
2019-04-06T00:50:31.167Z,16.83
2019-04-06T00:53:01.111Z,17.97
2019-04-06T00:55:31.078Z,16.80
2019-04-06T00:58:01.026Z,17.17
2019-04-06T01:00:31.009Z,17.03
2019-04-06T01:03:01.126Z,16.40
2019-04-06T01:05:31.093Z,14.87
2019-04-06T01:08:01.065Z,15.57
2019-04-06T01:10:31.005Z,15.63
2019-04-06T01:13:01.005Z,15.83
2019-04-06T01:15:31.024Z,17.13
2019-04-06T01:18:01.015Z,17.67
2019-04-06T01:20:30.958Z,16.57
2019-04-06T01:23:00.924Z,16.80
2019-04-06T01:25:30.862Z,15.60
2019-04-06T01:28:00.895Z,16.87
2019-04-06T01:30:31.106Z,16.37
2019-04-06T01:33:01.074Z,15.53
2019-04-06T01:35:31.124Z,17.10
2019-04-06T01:38:01.165Z,16.37
2019-04-06T01:40:31.109Z,16.47
2019-04-06T01:43:01.102Z,17.00
2019-04-06T01:45:31.047Z,17.27
2019-04-06T01:48:01.013Z,18.00
2019-04-06T01:50:30.958Z,15.70
2019-04-06T01:53:00.926Z,15.30
2019-04-06T01:55:30.945Z,17.43
2019-04-06T01:58:01.025Z,15.70
2019-04-06T02:00:30.981Z,15.97
2019-04-06T02:03:01.118Z,16.37
2019-04-06T02:05:31.071Z,16.40
2019-04-06T02:08:01.037Z,16.10
2019-04-06T02:10:31.073Z,16.13
2019-04-06T02:13:01.054Z,15.97
2019-04-06T02:15:31.002Z,16.07
2019-04-06T02:18:00.970Z,16.93
2019-04-06T02:20:30.918Z,17.10
2019-04-06T02:23:00.881Z,16.97
2019-04-06T02:25:30.858Z,16.73
2019-04-06T02:28:00.820Z,16.10
2019-04-06T02:30:32.408Z,17.67
2019-04-06T02:33:04.015Z,17.73
2019-04-06T02:35:38.275Z,17.27
2019-04-06T02:38:28.005Z,17.03
2019-04-06T02:40:59.597Z,16.40
2019-04-06T02:43:34.081Z,16.20
2019-04-06T02:46:04.304Z,16.87
2019-04-06T02:48:34.349Z,17.40
2019-04-06T02:51:04.458Z,16.03
2019-04-06T02:53:34.430Z,17.07
2019-04-06T02:56:04.468Z,16.50
2019-04-06T02:58:34.665Z,15.67
2019-04-06T03:01:04.662Z,17.03
2019-04-06T03:03:34.632Z,18.03
2019-04-06T03:06:05.247Z,17.80
2019-04-06T03:08:35.222Z,16.50
2019-04-06T03:11:05.222Z,17.30
2019-04-06T03:13:35.186Z,18.43
2019-04-06T03:16:05.203Z,17.40
2019-04-06T03:18:35.170Z,18.10
2019-04-06T03:21:05.351Z,18.63
2019-04-06T03:23:49.652Z,18.60
2019-04-06T03:26:07.039Z,17.00
2019-04-06T03:28:37.205Z,15.93
2019-04-06T03:31:07.242Z,18.33
2019-04-06T03:33:37.208Z,16.73
2019-04-06T03:36:07.155Z,17.70
2019-04-06T03:38:37.154Z,18.03
2019-04-06T03:41:07.447Z,18.67
2019-04-06T03:43:37.610Z,18.60
2019-04-06T03:46:07.680Z,17.20
2019-04-06T03:48:37.652Z,16.50
2019-04-06T03:51:07.766Z,17.33
2019-04-06T03:53:37.938Z,17.50
2019-04-06T03:56:07.896Z,17.70
2019-04-06T03:58:38.015Z,17.87
2019-04-06T04:01:07.920Z,17.17
2019-04-06T04:03:37.942Z,19.03
2019-04-06T04:06:08.156Z,17.43
2019-04-06T04:08:38.178Z,17.87
2019-04-06T04:11:08.129Z,17.93
2019-04-06T04:13:38.102Z,17.77
2019-04-06T04:16:08.042Z,18.93
2019-04-06T04:18:38.014Z,17.73
2019-04-06T04:21:07.960Z,17.20
2019-04-06T04:23:37.934Z,18.60
2019-04-06T04:26:07.866Z,18.70
2019-04-06T04:28:37.835Z,18.60
2019-04-06T04:31:07.785Z,18.80
2019-04-06T04:33:37.765Z,20.03
2019-04-06T04:36:07.789Z,20.07
2019-04-06T04:38:38.200Z,18.07
2019-04-06T04:41:08.292Z,19.13
2019-04-06T04:43:38.344Z,18.80
2019-04-06T04:46:08.328Z,19.40
2019-04-06T04:48:38.295Z,18.67
2019-04-06T04:51:08.243Z,18.50
2019-04-06T04:53:38.363Z,17.90
2019-04-06T04:56:08.265Z,19.10
2019-04-06T04:58:38.227Z,22.30
2019-04-06T05:01:08.175Z,23.63
2019-04-06T05:03:38.143Z,19.63
2019-04-06T05:06:08.160Z,22.17
2019-04-06T05:08:38.441Z,20.50
2019-04-06T05:11:08.602Z,20.50
2019-04-06T05:13:38.505Z,19.30
2019-04-06T05:16:12.819Z,20.63
2019-04-06T05:18:43.604Z,20.40
2019-04-06T05:21:13.921Z,19.63
2019-04-06T05:23:43.866Z,20.13
2019-04-06T05:26:13.808Z,22.23
2019-04-06T05:28:43.783Z,19.70
2019-04-06T05:31:13.869Z,19.37
2019-04-06T05:33:43.905Z,20.43
2019-04-06T05:36:15.172Z,19.87
2019-04-06T05:38:45.163Z,20.90
2019-04-06T05:41:15.135Z,21.17
2019-04-06T05:43:45.086Z,19.67
2019-04-06T05:46:15.036Z,20.60
2019-04-06T05:48:45.288Z,20.53
2019-04-06T05:51:15.333Z,21.07
2019-04-06T05:53:45.483Z,21.63
2019-04-06T05:56:15.455Z,22.40
2019-04-06T05:58:45.519Z,23.73
2019-04-06T06:01:15.474Z,24.73
2019-04-06T06:03:45.450Z,24.47
2019-04-06T06:06:15.404Z,23.87
2019-04-06T06:08:45.399Z,24.50
2019-04-06T06:11:15.357Z,24.27
2019-04-06T06:13:45.330Z,23.53
2019-04-06T06:16:15.279Z,21.87
2019-04-06T06:18:45.267Z,23.53
2019-04-06T06:21:15.223Z,23.57
2019-04-06T06:23:45.324Z,25.57
2019-04-06T06:26:15.243Z,24.03
2019-04-06T06:28:45.214Z,24.70
2019-04-06T06:31:15.184Z,24.57
2019-04-06T06:33:45.295Z,25.67
2019-04-06T06:36:15.488Z,26.17
2019-04-06T06:38:46.535Z,26.37
2019-04-06T06:41:16.547Z,27.73
2019-04-06T06:43:46.572Z,25.30
2019-04-06T06:46:16.553Z,26.07
2019-04-06T06:48:46.503Z,25.67
2019-04-06T06:51:16.446Z,25.80
2019-04-06T06:53:46.426Z,26.00
2019-04-06T06:56:16.371Z,24.83
2019-04-06T06:58:46.338Z,25.07
2019-04-06T07:01:16.291Z,24.87
2019-04-06T07:03:47.502Z,24.37
2019-04-06T07:06:17.482Z,24.80
2019-04-06T07:08:47.566Z,23.57
2019-04-06T07:11:17.522Z,21.27
2019-04-06T07:13:47.690Z,21.83
2019-04-06T07:16:17.678Z,21.53
2019-04-06T07:18:47.643Z,21.77
2019-04-06T07:21:17.598Z,22.50
2019-04-06T07:23:47.575Z,22.47
2019-04-06T07:26:17.595Z,24.20
2019-04-06T07:28:47.615Z,48.17
2019-04-06T07:31:17.650Z,55.37
2019-04-06T07:33:47.636Z,66.07
2019-04-06T07:36:17.819Z,28.47
2019-04-06T07:38:47.819Z,24.80
2019-04-06T07:41:17.767Z,20.83
2019-04-06T07:43:47.748Z,19.77
2019-04-06T07:46:17.807Z,20.73
2019-04-06T07:48:47.857Z,20.67
2019-04-06T07:51:18.115Z,20.17
2019-04-06T07:53:48.189Z,20.40
2019-04-06T07:56:20.523Z,21.37
2019-04-06T07:58:50.326Z,20.40
2019-04-06T08:01:20.541Z,20.23
2019-04-06T08:03:50.527Z,21.03
2019-04-06T08:06:20.478Z,19.03
2019-04-06T08:08:50.471Z,20.63
2019-04-06T08:11:20.550Z,19.87
2019-04-06T08:13:50.526Z,20.63
2019-04-06T08:16:20.503Z,20.77
2019-04-06T08:18:50.473Z,22.00
2019-04-06T08:21:20.557Z,23.00
2019-04-06T08:23:50.510Z,22.60
2019-04-06T08:26:20.615Z,22.63
2019-04-06T08:28:59.750Z,23.47
2019-04-06T08:31:22.243Z,21.73
2019-04-06T08:33:52.195Z,21.37
2019-04-06T08:36:22.290Z,23.17
2019-04-06T08:38:52.226Z,20.57
2019-04-06T08:41:23.179Z,19.63
2019-04-06T08:43:53.135Z,20.80
2019-04-06T08:46:23.127Z,21.53
2019-04-06T08:48:53.094Z,21.70
2019-04-06T08:51:23.067Z,28.00
2019-04-06T08:53:53.185Z,29.23
2019-04-06T08:56:23.275Z,21.77
2019-04-06T08:58:53.264Z,19.83
2019-04-06T09:01:23.238Z,27.53
2019-04-06T09:03:53.190Z,30.83
2019-04-06T09:06:23.172Z,26.13
2019-04-06T09:08:53.134Z,31.97
2019-04-06T09:11:23.121Z,68.83
2019-04-06T09:13:53.085Z,55.50
2019-04-06T09:16:23.273Z,44.57
2019-04-06T09:18:53.254Z,78.90
2019-04-06T09:21:23.231Z,40.87
2019-04-06T09:23:53.198Z,33.40
2019-04-06T09:26:23.180Z,20.83
2019-04-06T09:28:53.126Z,22.70
2019-04-06T09:31:23.618Z,19.23
2019-04-06T09:33:53.559Z,23.50
2019-04-06T09:36:23.535Z,23.33
2019-04-06T09:38:53.498Z,67.60
2019-04-06T09:41:25.993Z,26.50
2019-04-06T09:43:55.136Z,30.97
2019-04-06T09:46:26.754Z,17.07
2019-04-06T09:49:10.543Z,17.70
2019-04-06T09:51:44.907Z,17.17
2019-04-06T09:54:19.181Z,32.00
2019-04-06T09:56:50.798Z,16.20
2019-04-06T09:59:36.721Z,15.03
2019-04-06T10:02:07.834Z,15.70
2019-04-06T10:04:58.333Z,19.67
2019-04-06T10:07:35.651Z,16.07
2019-04-06T10:10:26.399Z,16.73
2019-04-06T10:13:13.266Z,15.93
2019-04-06T10:15:53.766Z,14.70
2019-04-06T10:18:31.264Z,15.53
2019-04-06T10:21:20.841Z,16.10
2019-04-06T10:24:07.710Z,16.80
2019-04-06T10:26:42.468Z,16.97
2019-04-06T10:29:26.469Z,15.70
2019-04-06T10:32:13.460Z,17.03
2019-04-06T10:34:47.843Z,16.50
2019-04-06T10:37:19.475Z,27.73
2019-04-06T10:40:07.457Z,18.30
2019-04-06T10:42:51.555Z,16.03
2019-04-06T10:45:26.322Z,14.63
2019-04-06T10:48:14.272Z,18.50
2019-04-06T10:51:01.162Z,25.23
2019-04-06T10:53:44.702Z,21.10
2019-04-06T10:56:19.385Z,17.23
2019-04-06T10:58:50.987Z,17.13
2019-04-06T11:01:37.643Z,18.13
2019-04-06T11:04:21.853Z,16.87
2019-04-06T11:06:56.484Z,17.20
2019-04-06T11:09:40.143Z,15.13
2019-04-06T11:12:18.033Z,16.87
2019-04-06T11:14:52.551Z,17.27
2019-04-06T11:17:39.742Z,16.57
2019-04-06T11:20:11.604Z,17.77
2019-04-06T11:23:01.055Z,17.67
2019-04-06T11:25:32.666Z,15.20
2019-04-06T11:28:04.495Z,15.53
2019-04-06T11:30:45.255Z,17.10
2019-04-06T11:33:16.792Z,16.20
2019-04-06T11:36:00.631Z,15.07
2019-04-06T11:38:49.459Z,14.47
2019-04-06T11:41:30.039Z,13.70
2019-04-06T11:44:18.193Z,13.00
2019-04-06T11:46:59.122Z,12.33
2019-04-06T11:49:30.719Z,13.37
2019-04-06T11:52:05.392Z,14.33
2019-04-06T11:54:39.989Z,14.90
2019-04-06T11:57:11.615Z,14.00
2019-04-06T11:59:43.210Z,12.77
2019-04-06T12:02:26.466Z,12.03
2019-04-06T12:04:58.051Z,13.53
2019-04-06T12:07:41.362Z,13.13
2019-04-06T12:10:22.310Z,14.30
2019-04-06T12:12:57.636Z,12.70
2019-04-06T12:15:35.523Z,14.43
2019-04-06T12:18:10.306Z,15.07
2019-04-06T12:20:44.809Z,13.83
2019-04-06T12:23:20.851Z,14.17
2019-04-06T12:25:54.925Z,14.20
2019-04-06T12:28:35.447Z,14.90
2019-04-06T12:31:09.744Z,13.47
2019-04-06T12:34:00.670Z,12.80
2019-04-06T12:36:44.159Z,12.50
2019-04-06T12:39:18.723Z,13.13
2019-04-06T12:41:53.223Z,12.67
2019-04-06T12:44:39.843Z,12.20
2019-04-06T12:47:27.610Z,13.17
2019-04-06T12:50:08.244Z,12.87
2019-04-06T12:52:45.679Z,12.90
2019-04-06T12:55:33.999Z,11.07
2019-04-06T12:58:12.110Z,11.87
2019-04-06T13:01:00.199Z,13.27
2019-04-06T13:03:34.527Z,14.07
2019-04-06T13:06:06.185Z,11.30
2019-04-06T13:08:37.800Z,12.47
2019-04-06T13:11:21.735Z,12.97
2019-04-06T13:14:02.053Z,14.70
2019-04-06T13:16:34.769Z,13.73
2019-04-06T13:19:21.535Z,14.60
2019-04-06T13:21:59.299Z,15.27
2019-04-06T13:24:33.648Z,14.10
2019-04-06T13:27:05.267Z,13.15
2019-04-06T13:29:39.528Z,12.50
2019-04-06T13:32:13.810Z,12.75
2019-04-06T13:34:45.419Z,12.07
2019-04-06T13:37:26.499Z,11.03
2019-04-06T13:40:10.302Z,14.50
2019-04-06T13:42:48.311Z,59.98
2019-04-06T13:45:23.092Z,13.70
2019-04-06T13:48:02.394Z,10.78
2019-04-06T13:50:51.892Z,10.30
2019-04-06T13:53:26.658Z,9.13
2019-04-06T13:56:00.999Z,9.10
2019-04-06T13:58:38.738Z,9.60
2019-04-06T14:01:16.002Z,10.58
2019-04-06T14:03:44.546Z,9.28
2019-04-06T14:06:25.120Z,10.35
2019-04-06T14:08:56.730Z,10.32
2019-04-06T14:11:34.311Z,11.00
2019-04-06T14:14:09.052Z,11.00
2019-04-06T14:16:40.888Z,9.78
2019-04-06T14:19:15.516Z,9.35
2019-04-06T14:21:47.126Z,9.40
2019-04-06T14:24:34.954Z,9.13
2019-04-06T14:27:21.850Z,8.45
2019-04-06T14:30:02.537Z,9.40
2019-04-06T14:32:50.826Z,9.00
2019-04-06T14:35:22.904Z,9.13
2019-04-06T14:38:03.767Z,9.48
2019-04-06T14:40:35.698Z,9.85
2019-04-06T14:43:08.048Z,9.75
2019-04-06T14:45:52.200Z,9.75
2019-04-06T14:48:40.094Z,9.78
2019-04-06T14:51:14.478Z,9.05
2019-04-06T14:53:46.096Z,10.32
2019-04-06T14:56:23.657Z,10.05
2019-04-06T14:59:01.533Z,9.98
2019-04-06T15:01:45.658Z,8.35
2019-04-06T15:04:24.681Z,9.95
2019-04-06T15:07:14.592Z,10.72
2019-04-06T15:09:48.930Z,10.82
2019-04-06T15:12:26.658Z,11.12
2019-04-06T15:15:13.335Z,11.85
2019-04-06T15:17:55.313Z,11.45
2019-04-06T15:20:27.084Z,12.18
2019-04-06T15:23:08.422Z,12.20
2019-04-06T15:25:40.022Z,16.42
2019-04-06T15:28:11.786Z,13.00
2019-04-06T15:30:53.150Z,11.38
2019-04-06T15:33:36.571Z,12.13
2019-04-06T15:36:23.160Z,11.75
2019-04-06T15:38:57.636Z,12.03
2019-04-06T15:41:32.562Z,13.48
2019-04-06T15:44:20.926Z,13.65
2019-04-06T15:47:07.616Z,13.18
2019-04-06T15:49:48.763Z,13.50
2019-04-06T15:52:29.172Z,16.02
2019-04-06T15:55:00.789Z,14.70
2019-04-06T15:57:44.635Z,13.43
2019-04-06T16:00:28.465Z,13.75
2019-04-06T16:03:18.078Z,15.32
2019-04-06T16:05:52.810Z,17.33
2019-04-06T16:08:24.422Z,15.33
2019-04-06T16:10:56.020Z,15.47
2019-04-06T16:13:27.964Z,17.23
2019-04-06T16:16:05.375Z,16.90
2019-04-06T16:18:40.084Z,18.30
2019-04-06T16:21:27.852Z,17.37
2019-04-06T16:24:03.050Z,19.10
2019-04-06T16:26:35.451Z,21.23
2019-04-06T16:29:23.653Z,17.03
2019-04-06T16:31:57.038Z,18.03
2019-04-06T16:34:28.825Z,16.90
2019-04-06T16:37:00.449Z,15.63
2019-04-06T16:39:34.886Z,28.53
2019-04-06T16:42:09.478Z,18.50
2019-04-06T16:44:41.078Z,20.97
2019-04-06T16:47:29.030Z,21.57
2019-04-06T16:50:12.506Z,15.50
2019-04-06T16:52:59.322Z,16.80
2019-04-06T16:55:33.666Z,15.83
2019-04-06T16:58:21.580Z,19.37
2019-04-06T17:01:09.919Z,21.83
2019-04-06T17:03:41.997Z,21.30
2019-04-06T17:06:30.392Z,25.97
2019-04-06T17:09:11.664Z,16.13
2019-04-06T17:12:02.467Z,25.07
2019-04-06T17:14:39.535Z,27.87
2019-04-06T17:17:11.129Z,22.17
2019-04-06T17:20:00.840Z,21.73
2019-04-06T17:22:38.323Z,23.47
2019-04-06T17:25:28.235Z,21.67
2019-04-06T17:28:14.678Z,20.70
2019-04-06T17:30:52.515Z,16.17
2019-04-06T17:33:33.038Z,49.53
2019-04-06T17:36:16.650Z,23.37
2019-04-06T17:38:49.826Z,16.70
2019-04-06T17:41:27.494Z,15.00
2019-04-06T17:43:59.242Z,18.40
2019-04-06T17:46:47.190Z,16.93
2019-04-06T17:49:28.276Z,16.80
2019-04-06T17:52:12.174Z,17.00
2019-04-06T17:54:50.360Z,22.10
2019-04-06T17:57:40.137Z,49.53
2019-04-06T18:00:24.202Z,51.50
2019-04-06T18:03:01.591Z,35.17
2019-04-06T18:05:34.179Z,18.87
2019-04-06T18:08:08.691Z,18.03
2019-04-06T18:10:43.627Z,24.53
2019-04-06T18:13:21.180Z,21.73
2019-04-06T18:15:51.330Z,18.63
2019-04-06T18:18:21.278Z,21.87
2019-04-06T18:20:51.263Z,29.60
2019-04-06T18:23:21.219Z,24.73
2019-04-06T18:25:51.202Z,25.73
2019-04-06T18:28:21.575Z,19.23
2019-04-06T18:30:53.770Z,19.10
2019-04-06T18:33:25.363Z,23.93
2019-04-06T18:35:55.355Z,21.10
2019-04-06T18:38:32.759Z,21.03
2019-04-06T18:41:02.767Z,22.17
2019-04-06T18:43:32.725Z,19.30
2019-04-06T18:46:02.780Z,21.77
2019-04-06T18:48:32.886Z,22.67
2019-04-06T18:51:03.439Z,19.13
2019-04-06T18:53:33.396Z,20.07
2019-04-06T18:56:04.065Z,18.80
2019-04-06T18:58:34.598Z,19.20
2019-04-06T19:01:04.774Z,18.57
2019-04-06T19:03:34.732Z,19.63
2019-04-06T19:06:05.251Z,18.80
2019-04-06T19:08:36.561Z,19.97
2019-04-06T19:11:06.978Z,21.10
2019-04-06T19:13:37.514Z,20.47
2019-04-06T19:16:07.660Z,22.17
2019-04-06T19:18:37.614Z,24.60
2019-04-06T19:21:07.586Z,25.97
2019-04-06T19:23:37.844Z,25.93
2019-04-06T19:26:07.818Z,27.60
2019-04-06T19:28:37.808Z,28.53
2019-04-06T19:31:07.772Z,27.50
2019-04-06T19:33:37.715Z,26.20
2019-04-06T19:36:07.686Z,26.27
2019-04-06T19:38:38.110Z,26.27
2019-04-06T19:41:08.128Z,26.23
2019-04-06T19:43:38.079Z,25.53
2019-04-06T19:46:08.064Z,24.87
2019-04-06T19:48:40.494Z,25.43
2019-04-06T19:51:10.212Z,25.70
2019-04-06T19:53:40.374Z,26.30
2019-04-06T19:56:10.880Z,25.07
2019-04-06T19:58:40.918Z,26.80
2019-04-06T20:01:10.946Z,25.47
2019-04-06T20:03:40.958Z,25.57
2019-04-06T20:06:10.942Z,27.13
2019-04-06T20:08:41.162Z,28.60
2019-04-06T20:11:11.172Z,27.33
2019-04-06T20:13:41.127Z,28.57
2019-04-06T20:16:12.160Z,28.57
2019-04-06T20:18:42.275Z,28.97
2019-04-06T20:21:12.296Z,27.23
2019-04-06T20:23:42.892Z,27.13
2019-04-06T20:26:12.955Z,28.17
2019-04-06T20:28:42.990Z,28.77
2019-04-06T20:31:13.300Z,27.50
2019-04-06T20:33:50.974Z,28.07
2019-04-06T20:36:17.250Z,27.87
2019-04-06T20:38:47.207Z,27.70
2019-04-06T20:41:18.263Z,28.33
2019-04-06T20:43:48.616Z,25.93
2019-04-06T20:46:20.485Z,26.40
2019-04-06T20:48:51.176Z,26.20
2019-04-06T20:51:21.482Z,26.07
2019-04-06T20:53:51.998Z,26.27
2019-04-06T20:56:21.979Z,26.40
2019-04-06T20:58:52.191Z,26.23
2019-04-06T21:01:23.232Z,25.23
2019-04-06T21:04:01.058Z,24.40
2019-04-06T21:06:24.866Z,23.17
2019-04-06T21:08:54.818Z,24.30
2019-04-06T21:11:24.795Z,23.97
2019-04-06T21:13:55.124Z,24.33
2019-04-06T21:16:25.131Z,23.03
2019-04-06T21:18:55.082Z,24.27
2019-04-06T21:21:25.059Z,22.27
2019-04-06T21:23:55.011Z,23.57
2019-04-06T21:26:24.986Z,23.47
2019-04-06T21:28:55.383Z,23.83
2019-04-06T21:31:25.929Z,24.63
2019-04-06T21:33:56.029Z,25.47
2019-04-06T21:36:26.515Z,25.37
2019-04-06T21:38:57.081Z,23.33
2019-04-06T21:41:27.826Z,24.57
2019-04-06T21:43:58.852Z,24.87
2019-04-06T21:46:29.068Z,25.67
2019-04-06T21:48:58.990Z,24.37
2019-04-06T21:51:28.974Z,24.93
2019-04-06T21:53:58.922Z,25.37
2019-04-06T21:56:28.903Z,24.47
2019-04-06T21:58:59.977Z,23.20
2019-04-06T22:01:30.303Z,22.63
2019-04-06T22:04:00.437Z,23.17
2019-04-06T22:06:30.492Z,25.13
2019-04-06T22:09:00.529Z,25.23
2019-04-06T22:11:32.094Z,24.87
2019-04-06T22:14:02.049Z,24.77
2019-04-06T22:16:32.511Z,25.57
2019-04-06T22:19:02.534Z,25.17
2019-04-06T22:21:32.595Z,25.07
2019-04-06T22:24:03.059Z,24.80
2019-04-06T22:26:33.082Z,23.03
2019-04-06T22:29:03.035Z,23.23
2019-04-06T22:31:33.294Z,23.33
2019-04-06T22:34:03.351Z,23.70
2019-04-06T22:36:33.317Z,23.33
2019-04-06T22:39:04.150Z,23.67
2019-04-06T22:41:35.407Z,23.40
2019-04-06T22:44:05.834Z,24.27
2019-04-06T22:46:35.847Z,25.07
2019-04-06T22:49:05.807Z,25.37
2019-04-06T22:51:35.772Z,25.37
2019-04-06T22:54:05.975Z,25.63
2019-04-06T22:56:36.268Z,23.60
2019-04-06T22:59:06.345Z,26.13
2019-04-06T23:01:37.959Z,26.30
2019-04-06T23:04:15.973Z,25.70
2019-04-06T23:06:48.195Z,24.10
2019-04-06T23:09:18.258Z,24.33
2019-04-06T23:11:48.225Z,24.23
2019-04-06T23:14:18.178Z,26.70
2019-04-06T23:16:48.151Z,25.20
2019-04-06T23:19:18.238Z,26.80
2019-04-06T23:21:48.796Z,26.93
2019-04-06T23:24:19.347Z,25.73
2019-04-06T23:26:49.865Z,25.67
2019-04-06T23:29:19.911Z,26.57
2019-04-06T23:31:49.883Z,26.83
2019-04-06T23:34:20.330Z,27.57
2019-04-06T23:36:51.107Z,25.13
2019-04-06T23:39:21.775Z,26.67
2019-04-06T23:41:51.908Z,26.57
2019-04-06T23:44:21.899Z,26.47
2019-04-06T23:46:51.947Z,25.43
2019-04-06T23:49:22.407Z,26.30
2019-04-06T23:51:52.462Z,26.60
2019-04-06T23:54:23.898Z,26.67
2019-04-06T23:56:54.030Z,28.10
2019-04-06T23:59:24.007Z,26.43
